This is the latest recevied weather packets stored in our database for station/object IU5JAE-13. If no packets are shown the sender has not sent any weather packets the latest 10 day(s).
| Time | Temp. | Humidity | Pressure | Rain* | Wind** | Luminosity | Snow |
|---|---|---|---|---|---|---|---|
| 1788356725 | 27.78° C | 70% | 1020.1 hPa | 0 mm | - | 376 W/m² | - |
| 1788356123 | 27.78° C | 69% | 1020.2 hPa | 0 mm | - | 318 W/m² | - |
| 1788355520 | 27.78° C | 69% | 1020.3 hPa | 0 mm | - | 430 W/m² | - |
| 1788354918 | 26.67° C | 70% | 1020.3 hPa | 0 mm | - | 458 W/m² | - |
| 1788354316 | 27.22° C | 70% | 1020.3 hPa | 0 mm | - | 493 W/m² | - |
| 1788353733 | 26.11° C | 72% | 1020.4 hPa | 0 mm | - | 390 W/m² | - |
| 1788353131 | 26.11° C | 71% | 1020.4 hPa | 0 mm | - | 214 W/m² | - |
| 1788352528 | 27.22° C | 67% | 1020.4 hPa | 0 mm | - | 228 W/m² | - |
| 1788351926 | 28.33° C | 65% | 1020.5 hPa | 0 mm | - | 461 W/m² | - |
| 1788351324 | 27.78° C | 65% | 1020.7 hPa | 0 mm | - | 580 W/m² | - |
| 1788350721 | 27.22° C | 65% | 1020.6 hPa | 0 mm | - | 504 W/m² | - |
| 1788350119 | 26.67° C | 66% | 1020.6 hPa | 0 mm | - | 402 W/m² | - |
| 1788349516 | 27.22° C | 64% | 1020.7 hPa | 0 mm | - | 617 W/m² | - |
| 1788348934 | 27.22° C | 63% | 1020.8 hPa | 0 mm | - | 593 W/m² | - |
| 1788348331 | 28.33° C | 61% | 1020.8 hPa | 0 mm | - | 585 W/m² | - |
| 1788347729 | 27.78° C | 62% | 1020.8 hPa | 0 mm | - | 584 W/m² | - |
| 1788347127 | 28.33° C | 61% | 1020.9 hPa | 0 mm | - | 585 W/m² | - |
| 1788346524 | 27.78° C | 62% | 1020.8 hPa | 0 mm | - | 587 W/m² | - |
| 1788345922 | 27.78° C | 62% | 1021 hPa | 0 mm | - | 590 W/m² | - |
| 1788345319 | 27.22° C | 62% | 1021 hPa | 0 mm | - | 584 W/m² | - |
| 1788344717 | 26.67° C | 64% | 1021.2 hPa | 0 mm | - | 571 W/m² | - |
| 1788344135 | 27.22° C | 63% | 1021.2 hPa | 0 mm | - | 558 W/m² | - |
| 1788343532 | 26.11° C | 66% | 1021.2 hPa | 0 mm | - | 548 W/m² | - |
| 1788342930 | 26.11° C | 65% | 1021.3 hPa | 0 mm | - | 537 W/m² | - |
| 1788342327 | 26.11° C | 65% | 1021.2 hPa | 0 mm | - | 532 W/m² | - |
* Rain latest hour (hover to see other rain measurements)
** Current wind speed in m/s (hover to see current wind gust speed)